Time;durP1;ratioP1;P1;durP2;ratioP2;P2;SDS_P1;SDS_P2;PMS_P1;PMS_P2;Temp;Humidity;BMP_temperature;BMP_pressure;BME280_temperature;BME280_humidity;BME280_pressure;Samples;Min_cycle;Max_cycle;Signal;HPM_P1;HPM_P2
2023/01/20 00:00:27;;;;;;;28.10;7.80;;;;;;;8.62;100.00;98973.19;108169;1275;22973;-75
2023/01/20 00:02:54;;;;;;;32.50;8.60;;;;;;;8.62;100.00;98975.73;108219;1274;22987;-74
2023/01/20 00:05:22;;;;;;;33.50;9.10;;;;;;;8.60;100.00;98978.02;108296;1275;22682;-74
2023/01/20 00:07:49;;;;;;;34.60;8.70;;;;;;;8.58;100.00;98983.51;108175;1275;22631;-73
2023/01/20 00:10:16;;;;;;;29.50;8.50;;;;;;;8.51;100.00;98981.95;107709;1274;23270;-75
2023/01/20 00:35:56;;;;;;;44.00;14.50;;;;;;;7.62;100.00;98968.99;104378;1305;545793;-70
2023/01/20 00:38:23;;;;;;;33.10;12.00;;;;;;;7.69;100.00;98983.73;106599;1283;23249;-70
2023/01/20 00:40:54;;;;;;;33.90;11.10;;;;;;;7.80;100.00;98993.23;106593;1289;23015;-70
2023/01/20 00:43:21;;;;;;;33.80;10.00;;;;;;;7.90;100.00;98993.02;106570;1289;22588;-70
2023/01/20 00:45:48;;;;;;;33.60;9.30;;;;;;;7.97;100.00;98984.16;106669;1289;22564;-70
2023/01/20 00:48:15;;;;;;;33.50;8.70;;;;;;;8.03;100.00;98982.90;106600;1289;24309;-70
2023/01/20 00:50:42;;;;;;;29.90;9.30;;;;;;;8.08;100.00;98983.98;106574;1285;228260;-70
2023/01/20 00:53:09;;;;;;;32.30;8.70;;;;;;;8.13;100.00;98985.88;106804;1286;22555;-71
2023/01/20 00:55:36;;;;;;;26.90;7.60;;;;;;;8.18;100.00;98980.39;106573;1287;22539;-70
2023/01/20 00:58:03;;;;;;;22.80;7.90;;;;;;;8.22;100.00;98975.17;106566;1287;22565;-70
2023/01/20 01:00:30;;;;;;;27.50;8.70;;;;;;;8.22;100.00;98977.13;106564;1286;23036;-69
2023/01/20 01:02:58;;;;;;;28.50;8.20;;;;;;;8.20;100.00;98985.21;109542;1287;23074;-71
2023/01/20 01:05:25;;;;;;;27.90;8.10;;;;;;;8.24;100.00;98990.02;109588;1287;22538;-71
2023/01/20 01:07:52;;;;;;;26.50;8.40;;;;;;;8.29;100.00;98996.86;109588;1287;22316;-71
2023/01/20 01:10:19;;;;;;;33.50;8.70;;;;;;;8.32;100.00;98999.76;109578;1287;22952;-71
2023/01/20 01:12:46;;;;;;;31.90;8.00;;;;;;;8.34;100.00;98998.77;109586;1287;22465;-71
2023/01/20 01:15:14;;;;;;;30.50;8.80;;;;;;;8.32;100.00;98999.42;109504;1287;23066;-71
2023/01/20 01:17:42;;;;;;;32.10;8.70;;;;;;;8.28;100.00;99002.02;109601;1287;23199;-71
2023/01/20 01:20:11;;;;;;;28.20;8.40;;;;;;;8.29;100.00;98999.38;109609;1286;22309;-70
2023/01/20 01:22:39;;;;;;;29.30;7.70;;;;;;;8.31;100.00;99001.05;109727;1284;23099;-71
2023/01/20 01:25:06;;;;;;;24.30;8.40;;;;;;;8.30;100.00;98994.11;109811;1284;22233;-71
2023/01/20 01:27:33;;;;;;;23.00;8.10;;;;;;;8.26;100.00;98985.00;109796;1284;22297;-71
2023/01/20 01:30:00;;;;;;;27.50;7.70;;;;;;;8.22;100.00;98986.35;109786;1283;22443;-71
2023/01/20 01:32:27;;;;;;;26.40;8.20;;;;;;;8.23;100.00;98988.63;109774;1283;22600;-71
2023/01/20 01:34:54;;;;;;;24.80;7.30;;;;;;;8.24;100.00;98984.02;109794;1283;22223;-71
2023/01/20 01:37:21;;;;;;;26.20;7.10;;;;;;;8.28;100.00;98983.33;109789;1283;22290;-71
2023/01/20 01:39:48;;;;;;;28.00;7.40;;;;;;;8.29;100.00;98984.89;109794;1283;22216;-71
2023/01/20 01:42:18;;;;;;;32.60;8.70;;;;;;;8.26;100.00;98986.02;109770;1283;22354;-71
2023/01/20 01:45:08;;;;;;;26.50;7.60;;;;;;;8.15;100.00;98980.17;109808;1283;22337;-71
2023/01/20 01:48:00;;;;;;;26.20;7.60;;;;;;;8.14;100.00;98982.30;109773;1283;22292;-71
2023/01/20 01:50:44;;;;;;;22.40;7.40;;;;;;;8.14;100.00;98987.77;109788;1283;22370;-71
2023/01/20 01:53:12;;;;;;;26.70;7.20;;;;;;;8.12;100.00;98983.60;109762;1283;22293;-71
2023/01/20 01:55:42;;;;;;;29.50;7.80;;;;;;;8.10;100.00;98985.13;109784;1283;22864;-71
2023/01/20 01:58:11;;;;;;;26.90;8.00;;;;;;;8.02;100.00;98987.52;109785;1283;22213;-71
2023/01/20 02:00:39;;;;;;;26.40;8.00;;;;;;;7.97;100.00;98994.09;109653;1283;22204;-71
2023/01/20 02:03:06;;;;;;;26.20;7.10;;;;;;;7.96;100.00;98996.37;109815;1283;22230;-71
2023/01/20 02:05:33;;;;;;;24.20;7.10;;;;;;;7.95;100.00;98996.69;109792;1283;22212;-71
2023/01/20 02:08:00;;;;;;;28.40;8.10;;;;;;;7.95;100.00;98993.39;109803;1283;22226;-71
2023/01/20 02:10:27;;;;;;;22.40;7.70;;;;;;;7.93;100.00;98995.93;109807;1283;22996;-71
2023/01/20 02:12:54;;;;;;;31.20;8.40;;;;;;;7.87;100.00;98995.89;109816;1284;22305;-71
2023/01/20 02:15:25;;;;;;;24.10;8.00;;;;;;;7.85;100.00;98997.67;108625;1283;22626;-70
2023/01/20 02:18:22;;;;;;;24.90;7.60;;;;;;;7.85;100.00;98996.10;106959;1283;23255;-70
2023/01/20 02:20:55;;;;;;;21.70;7.30;;;;;;;7.84;100.00;98995.02;106803;1283;22722;-70
2023/01/20 02:23:46;;;;;;;26.40;7.70;;;;;;;7.79;100.00;98997.57;106816;1283;22536;-70
2023/01/20 02:26:25;;;;;;;28.30;7.70;;;;;;;7.70;100.00;98998.20;106758;1281;22529;-70
2023/01/20 02:29:23;;;;;;;24.10;7.60;;;;;;;7.67;100.00;99008.40;106869;1283;27091;-70
2023/01/20 02:32:05;;;;;;;23.50;7.50;;;;;;;7.66;100.00;99016.95;106938;1281;25264;-70
2023/01/20 02:34:41;;;;;;;21.00;7.00;;;;;;;7.65;100.00;99016.09;106971;1281;22545;-70
2023/01/20 02:37:21;;;;;;;26.20;7.20;;;;;;;7.64;100.00;99011.92;106984;1283;22550;-71
2023/01/20 02:39:57;;;;;;;28.90;8.50;;;;;;;7.58;100.00;99009.69;106784;1283;22968;-70
2023/01/20 02:42:26;;;;;;;25.60;7.40;;;;;;;7.52;100.00;99018.40;106993;1284;22555;-70
2023/01/20 02:45:17;;;;;;;29.10;7.00;;;;;;;7.50;100.00;99015.75;106952;1285;26531;-70
2023/01/20 02:48:11;;;;;;;26.60;8.30;;;;;;;7.49;100.00;99025.44;107041;1282;24392;-70
2023/01/20 02:50:55;;;;;;;22.40;6.90;;;;;;;7.46;100.00;99033.19;106937;1284;22547;-71
2023/01/20 02:53:22;;;;;;;30.50;10.90;;;;;;;7.40;100.00;99040.60;107022;1284;22961;-70
2023/01/20 02:55:50;;;;;;;25.90;7.40;;;;;;;7.32;100.00;99037.00;106980;1283;23496;-70
2023/01/20 02:58:31;;;;;;;23.00;7.00;;;;;;;7.29;100.00;99038.07;106909;1283;25323;-70
2023/01/20 03:01:23;;;;;;;31.30;7.00;;;;;;;7.30;100.00;99045.11;106902;1284;22548;-70
2023/01/20 03:03:51;;;;;;;23.70;6.30;;;;;;;7.29;100.00;99054.11;109712;1284;22301;-71
2023/01/20 03:06:21;;;;;;;22.90;6.60;;;;;;;7.28;100.00;99056.91;109614;1283;22259;-71
2023/01/20 03:08:50;;;;;;;23.40;7.00;;;;;;;7.27;100.00;99062.12;109630;1283;23120;-71
2023/01/20 03:11:17;;;;;;;27.50;7.40;;;;;;;7.22;100.00;99057.77;109802;1283;22408;-71
2023/01/20 03:13:53;;;;;;;22.30;6.90;;;;;;;7.23;100.00;99054.46;109699;1283;22436;-71
2023/01/20 03:16:22;;;;;;;20.60;6.50;;;;;;;7.25;100.00;99065.89;109710;1283;22198;-71
2023/01/20 03:18:49;;;;;;;22.00;6.50;;;;;;;7.27;100.00;99078.84;109792;1283;22311;-71
2023/01/20 03:21:16;;;;;;;21.20;6.60;;;;;;;7.29;100.00;99074.78;109657;1284;22216;-71
2023/01/20 03:23:54;;;;;;;24.60;6.90;;;;;;;7.32;100.00;99070.20;109779;1283;22964;-71
2023/01/20 03:26:21;;;;;;;21.00;6.80;;;;;;;7.36;100.00;99072.33;109700;1284;22229;-72
2023/01/20 03:28:49;;;;;;;22.90;6.70;;;;;;;7.35;100.00;99071.98;109818;1283;22215;-71
2023/01/20 03:31:26;;;;;;;22.40;7.20;;;;;;;7.38;100.00;99071.19;109733;1283;22233;-71
2023/01/20 03:33:56;;;;;;;20.60;6.10;;;;;;;7.43;100.00;99061.51;109698;1284;22534;-70
2023/01/20 03:36:24;;;;;;;24.00;6.20;;;;;;;7.43;100.00;99055.20;109813;1283;22604;-71
2023/01/20 03:38:51;;;;;;;20.80;6.00;;;;;;;7.42;100.00;99069.20;109776;1283;22256;-71
2023/01/20 03:41:30;;;;;;;23.50;6.00;;;;;;;7.36;100.00;99067.29;109809;1278;22196;-71
2023/01/20 03:44:00;;;;;;;23.40;6.40;;;;;;;7.26;100.00;99074.89;109709;1283;22420;-71
2023/01/20 03:46:44;;;;;;;23.40;6.00;;;;;;;7.24;100.00;99078.95;109751;1283;22969;-71
2023/01/20 03:49:32;;;;;;;26.30;5.80;;;;;;;7.23;100.00;99076.52;109627;1284;22358;-71
2023/01/20 03:52:02;;;;;;;22.00;5.40;;;;;;;7.24;100.00;99076.62;109620;1285;22756;-71
2023/01/20 03:54:37;;;;;;;22.90;6.00;;;;;;;7.23;100.00;99080.94;109615;1284;23022;-71
2023/01/20 03:57:10;;;;;;;18.60;5.80;;;;;;;7.18;100.00;99081.25;109794;1285;22419;-70
2023/01/20 03:59:38;;;;;;;26.90;6.50;;;;;;;7.10;100.00;99079.92;109640;1284;22970;-71
2023/01/20 04:02:06;;;;;;;23.00;6.30;;;;;;;7.09;100.00;99076.98;109624;1284;22205;-71
2023/01/20 04:04:34;;;;;;;21.60;6.00;;;;;;;7.11;100.00;99078.79;110289;1275;22221;-71
2023/01/20 04:07:03;;;;;;;19.40;5.90;;;;;;;7.14;100.00;99092.66;110247;1275;22219;-71
2023/01/20 04:09:32;;;;;;;21.10;5.90;;;;;;;7.13;100.00;99086.37;110278;1275;22278;-71
2023/01/20 04:11:59;;;;;;;17.10;5.50;;;;;;;7.10;100.00;99095.34;110341;1275;22437;-70
2023/01/20 04:14:26;;;;;;;18.60;6.00;;;;;;;7.01;100.00;99101.42;110226;1275;23271;-71
2023/01/20 04:16:56;;;;;;;22.00;6.00;;;;;;;6.98;100.00;99098.36;110383;1275;23646;-71
2023/01/20 04:19:24;;;;;;;23.20;5.70;;;;;;;6.97;100.00;99103.63;110140;1275;22748;-71
2023/01/20 04:22:13;;;;;;;19.50;5.30;;;;;;;6.95;100.00;99106.00;110326;1275;23061;-71
2023/01/20 04:24:43;;;;;;;16.30;6.10;;;;;;;6.90;100.00;99113.11;110309;1275;22890;-71
2023/01/20 04:27:10;;;;;;;18.10;5.10;;;;;;;6.83;100.00;99115.08;110269;1276;23128;-70
2023/01/20 04:29:37;;;;;;;22.60;6.40;;;;;;;6.82;100.00;99114.96;110302;1275;22191;-71
2023/01/20 04:32:04;;;;;;;20.60;5.90;;;;;;;6.84;100.00;99118.17;110303;1275;22679;-71
2023/01/20 04:34:31;;;;;;;20.20;6.30;;;;;;;6.85;100.00;99126.12;110277;1275;22343;-71
2023/01/20 04:36:59;;;;;;;18.00;5.60;;;;;;;6.85;100.00;99126.17;110279;1275;23023;-71
2023/01/20 04:39:26;;;;;;;19.00;6.00;;;;;;;6.81;100.00;99127.99;110305;1275;22255;-71
2023/01/20 04:41:53;;;;;;;22.20;6.10;;;;;;;6.82;100.00;99139.27;110319;1275;22411;-71
2023/01/20 04:44:20;;;;;;;25.50;6.50;;;;;;;6.84;100.00;99143.70;110344;1275;22396;-71
2023/01/20 04:46:47;;;;;;;17.00;5.80;;;;;;;6.88;100.00;99146.86;110321;1275;22327;-71
2023/01/20 04:49:14;;;;;;;22.90;6.80;;;;;;;6.91;100.00;99146.77;110324;1275;23008;-71
2023/01/20 04:51:41;;;;;;;18.20;5.80;;;;;;;6.88;100.00;99147.68;110318;1275;22792;-71
2023/01/20 04:54:08;;;;;;;18.00;5.60;;;;;;;6.87;100.00;99148.60;108108;1275;25352;-70
2023/01/20 04:56:35;;;;;;;22.70;5.90;;;;;;;6.90;100.00;99152.89;107447;1275;22561;-70
2023/01/20 04:59:02;;;;;;;25.80;6.50;;;;;;;6.94;100.00;99162.60;107764;1275;22717;-70
2023/01/20 05:01:29;;;;;;;22.90;6.00;;;;;;;6.97;100.00;99165.75;107558;1275;22516;-70
2023/01/20 05:03:56;;;;;;;17.60;5.60;;;;;;;6.95;100.00;99158.11;107527;1275;23060;-71
2023/01/20 05:06:23;;;;;;;22.60;5.80;;;;;;;6.90;100.00;99157.60;107554;1274;25373;-71
2023/01/20 05:08:50;;;;;;;21.00;5.90;;;;;;;6.92;100.00;99162.97;107334;1275;25632;-70
2023/01/20 05:11:18;;;;;;;24.30;6.60;;;;;;;6.97;100.00;99161.86;107352;1275;22653;-70
2023/01/20 05:13:45;;;;;;;24.00;6.30;;;;;;;7.00;100.00;99167.08;107196;1275;23882;-71
2023/01/20 05:16:12;;;;;;;21.70;6.40;;;;;;;6.99;100.00;99179.68;107503;1253;22517;-70
2023/01/20 05:18:39;;;;;;;23.30;6.30;;;;;;;6.95;100.00;99186.52;108956;1275;25250;-70
2023/01/20 05:21:07;;;;;;;27.40;6.30;;;;;;;6.96;100.00;99182.75;107586;1275;22550;-70
2023/01/20 05:23:34;;;;;;;25.20;6.30;;;;;;;6.99;100.00;99182.17;107557;1275;22572;-70
2023/01/20 05:26:01;;;;;;;17.50;6.30;;;;;;;7.01;100.00;99187.54;107550;1275;23941;-70
2023/01/20 05:28:28;;;;;;;21.20;6.70;;;;;;;7.03;100.00;99192.96;110198;1271;22447;-70
2023/01/20 05:30:55;;;;;;;25.40;6.90;;;;;;;7.06;100.00;99195.62;110317;1275;22331;-71
2023/01/20 05:33:22;;;;;;;20.30;6.90;;;;;;;7.03;100.00;99198.10;110329;1261;22192;-71
2023/01/20 05:35:49;;;;;;;19.30;6.70;;;;;;;7.05;100.00;99201.69;110341;1275;22195;-71
2023/01/20 05:38:16;;;;;;;23.00;6.30;;;;;;;7.07;100.00;99203.59;110304;1273;22860;-71
2023/01/20 05:40:43;;;;;;;22.30;6.60;;;;;;;7.08;100.00;99206.35;110313;1275;22332;-71
2023/01/20 05:43:10;;;;;;;17.20;5.40;;;;;;;7.05;100.00;99210.83;110335;1275;22357;-71
2023/01/20 05:45:39;;;;;;;20.30;6.60;;;;;;;7.04;100.00;99214.62;110333;1275;22284;-71
2023/01/20 05:48:05;;;;;;;17.90;5.80;;;;;;;7.07;100.00;99210.68;110326;1275;22221;-71
2023/01/20 05:50:33;;;;;;;17.60;6.00;;;;;;;7.10;100.00;99205.28;110339;1275;22339;-71
2023/01/20 05:53:00;;;;;;;17.80;6.50;;;;;;;7.12;100.00;99209.30;110257;1275;22203;-70
2023/01/20 05:55:27;;;;;;;22.50;6.30;;;;;;;7.12;100.00;99212.17;110321;1275;22485;-70
2023/01/20 05:57:54;;;;;;;22.10;6.00;;;;;;;7.09;100.00;99200.58;110319;1275;22270;-70
2023/01/20 06:00:21;;;;;;;19.20;6.80;;;;;;;7.09;100.00;99198.41;108835;1275;23048;-70
2023/01/20 06:02:48;;;;;;;20.10;5.70;;;;;;;7.10;100.00;99201.50;107372;1275;22523;-69
2023/01/20 06:05:15;;;;;;;20.20;6.20;;;;;;;7.09;100.00;99205.49;107362;1275;22559;-70
2023/01/20 06:07:43;;;;;;;21.30;6.70;;;;;;;7.06;100.00;99213.87;107377;1275;25303;-69
2023/01/20 06:10:10;;;;;;;20.30;6.30;;;;;;;6.97;100.00;99224.05;107331;1275;22636;-70
2023/01/20 06:12:37;;;;;;;22.20;6.90;;;;;;;6.91;100.00;99230.17;107478;1274;23349;-71
2023/01/20 06:15:05;;;;;;;22.10;6.00;;;;;;;6.89;100.00;99231.79;107561;1275;22641;-70
2023/01/20 06:17:32;;;;;;;17.10;6.40;;;;;;;6.90;100.00;99231.41;107582;1275;22540;-70
2023/01/20 06:19:59;;;;;;;17.80;7.30;;;;;;;6.87;100.00;99230.89;107558;1275;23987;-71
2023/01/20 06:22:26;;;;;;;22.10;6.70;;;;;;;6.81;100.00;99241.89;107471;1275;25387;-70
2023/01/20 06:24:53;;;;;;;23.00;7.10;;;;;;;6.79;100.00;99237.98;107445;1275;23900;-70
2023/01/20 06:27:20;;;;;;;16.80;6.60;;;;;;;6.81;100.00;99239.67;107350;1275;25398;-70
2023/01/20 06:29:49;;;;;;;19.50;7.30;;;;;;;6.83;100.00;99239.25;107420;1275;22577;-70
2023/01/20 06:32:16;;;;;;;19.50;6.30;;;;;;;6.81;100.00;99239.63;107450;1275;22694;-70
2023/01/20 06:34:43;;;;;;;17.20;6.30;;;;;;;6.76;100.00;99240.23;107606;1275;22631;-70
2023/01/20 06:37:10;;;;;;;21.70;6.00;;;;;;;6.76;100.00;99239.48;107469;1275;22641;-70
2023/01/20 06:39:39;;;;;;;18.00;6.00;;;;;;;6.79;100.00;99237.81;107515;1275;24536;-71
2023/01/20 06:42:06;;;;;;;17.90;6.30;;;;;;;6.83;100.00;99240.23;107535;1269;24218;-71
2023/01/20 06:44:33;;;;;;;20.70;6.50;;;;;;;6.86;100.00;99241.27;107437;1275;24330;-70
2023/01/20 06:47:00;;;;;;;18.70;6.20;;;;;;;6.85;100.00;99243.83;107772;1275;23270;-71
2023/01/20 06:49:27;;;;;;;17.60;6.40;;;;;;;6.84;100.00;99249.81;110311;1275;22223;-71
2023/01/20 06:51:54;;;;;;;15.90;6.40;;;;;;;6.89;100.00;99257.64;110351;1275;22429;-71
2023/01/20 06:54:21;;;;;;;16.00;6.20;;;;;;;6.95;100.00;99256.77;110298;1269;22425;-70
2023/01/20 06:56:48;;;;;;;19.90;5.90;;;;;;;7.00;100.00;99258.20;110327;1275;22688;-69
2023/01/20 06:59:15;;;;;;;17.40;6.50;;;;;;;7.03;100.00;99262.89;110311;1275;22211;-71
2023/01/20 07:01:42;;;;;;;19.00;6.60;;;;;;;7.04;100.00;99264.46;110329;1275;23306;-70
2023/01/20 07:04:12;;;;;;;18.90;5.80;;;;;;;7.10;100.00;99267.11;110356;1275;22409;-70
2023/01/20 07:06:39;;;;;;;19.00;6.30;;;;;;;7.16;100.00;99272.02;110309;1275;22347;-71
2023/01/20 07:09:08;;;;;;;19.60;6.40;;;;;;;7.18;100.00;99264.39;110302;1275;22231;-70
2023/01/20 07:11:36;;;;;;;20.80;6.80;;;;;;;7.16;100.00;99259.67;110274;1275;22420;-70
2023/01/20 07:14:03;;;;;;;15.90;6.40;;;;;;;7.13;100.00;99270.45;110284;1271;22231;-70
2023/01/20 07:16:30;;;;;;;21.30;6.70;;;;;;;7.19;100.00;99282.59;110214;1276;22334;-70
2023/01/20 07:18:57;;;;;;;16.60;5.90;;;;;;;7.24;100.00;99283.88;110348;1276;22194;-70
2023/01/20 07:21:24;;;;;;;14.70;6.10;;;;;;;7.27;100.00;99283.19;110360;1276;22228;-70
2023/01/20 07:23:52;;;;;;;19.30;6.50;;;;;;;7.29;100.00;99284.61;110241;1275;22393;-70
2023/01/20 07:26:25;;;;;;;19.00;6.90;;;;;;;7.29;100.00;99287.00;110339;1275;22383;-71
2023/01/20 07:28:52;;;;;;;22.60;7.30;;;;;;;7.31;100.00;99290.05;108971;1275;23310;-70
2023/01/20 07:31:21;;;;;;;18.70;6.90;;;;;;;7.30;100.00;99293.05;107694;1273;24048;-70
2023/01/20 07:33:48;;;;;;;19.70;6.80;;;;;;;7.23;100.00;99287.98;107514;1275;22569;-70
2023/01/20 07:36:15;;;;;;;17.70;7.00;;;;;;;7.17;100.00;99288.42;107489;1275;22546;-70
2023/01/20 07:38:46;;;;;;;22.10;6.80;;;;;;;7.21;100.00;99290.56;107568;1275;25399;-70
2023/01/20 07:41:17;;;;;;;16.40;6.40;;;;;;;7.29;100.00;99292.73;107462;1275;22550;-71
2023/01/20 07:43:45;;;;;;;16.60;6.30;;;;;;;7.33;100.00;99298.83;107576;1275;22610;-70
2023/01/20 07:46:12;;;;;;;17.90;6.80;;;;;;;7.31;100.00;99298.27;107559;1275;24291;-71
2023/01/20 07:48:39;;;;;;;17.90;6.30;;;;;;;7.29;100.00;99301.09;107555;1275;22584;-71
2023/01/20 10:24:58;;;;;;;27.40;14.10;;;;;;;7.48;100.00;99324.86;104269;1305;544870;-73
2023/01/20 10:27:27;;;;;;;23.40;11.80;;;;;;;7.67;100.00;99332.99;106244;1289;23928;-73
2023/01/20 10:30:05;;;;;;;20.60;9.70;;;;;;;7.85;100.00;99339.86;106803;1281;22600;-73
2023/01/20 10:32:36;;;;;;;18.60;8.80;;;;;;;8.01;100.00;99338.27;106826;1281;22588;-73
2023/01/20 10:35:15;;;;;;;20.60;8.70;;;;;;;8.16;100.00;99335.61;107244;1281;24356;-73
2023/01/20 10:37:43;;;;;;;15.70;7.40;;;;;;;8.31;100.00;99338.34;106808;1279;152692;-73
2023/01/20 10:40:15;;;;;;;17.40;8.30;;;;;;;8.45;100.00;99332.22;107094;1279;26619;-72
2023/01/20 10:42:47;;;;;;;18.90;8.00;;;;;;;8.55;100.00;99326.48;107233;1279;22539;-73
2023/01/20 10:45:19;;;;;;;19.20;7.30;;;;;;;8.73;100.00;99334.11;109949;1279;22227;-73
2023/01/20 10:48:10;;;;;;;15.70;7.00;;;;;;;8.91;100.00;99337.83;109896;1279;22221;-73
2023/01/20 10:50:41;;;;;;;16.20;7.60;;;;;;;9.08;100.00;99339.13;110012;1279;22506;-74
2023/01/20 10:53:23;;;;;;;15.70;7.50;;;;;;;9.10;100.00;99341.80;109921;1279;22340;-74
2023/01/20 10:56:16;;;;;;;18.40;7.40;;;;;;;9.11;100.00;99346.52;107138;1279;23879;-73
2023/01/20 10:58:46;;;;;;;15.00;6.80;;;;;;;9.18;100.00;99348.95;107088;1279;22529;-74
2023/01/20 11:01:17;;;;;;;22.10;7.60;;;;;;;9.20;100.00;99346.52;107203;1279;22609;-74
2023/01/20 11:03:46;;;;;;;16.40;7.40;;;;;;;9.18;100.00;99343.53;107396;1279;23288;-74
2023/01/20 11:06:22;;;;;;;17.30;7.10;;;;;;;9.11;100.00;99339.99;107122;1279;25145;-74
2023/01/20 11:08:49;;;;;;;17.40;7.30;;;;;;;9.14;100.00;99335.83;107452;1275;22665;-74
2023/01/20 11:11:19;;;;;;;18.50;7.20;;;;;;;9.18;100.00;99341.96;107549;1275;25356;-74
2023/01/20 11:13:46;;;;;;;19.60;8.10;;;;;;;9.22;100.00;99344.89;107848;1275;22670;-74
2023/01/20 11:16:21;;;;;;;19.70;7.70;;;;;;;9.22;100.00;99341.79;107705;1254;22832;-75
2023/01/20 11:19:06;;;;;;;15.50;6.80;;;;;;;9.29;100.00;99342.93;107770;1275;24207;-73
2023/01/20 11:21:35;;;;;;;18.40;7.50;;;;;;;9.34;100.00;99340.91;107575;1275;22549;-73
2023/01/20 11:24:28;;;;;;;15.20;6.80;;;;;;;9.41;100.00;99341.88;107298;1275;24353;-73
2023/01/20 11:27:06;;;;;;;16.90;8.20;;;;;;;9.43;100.00;99343.02;107379;1275;22550;-73
2023/01/20 11:29:37;;;;;;;16.20;7.20;;;;;;;9.45;100.00;99339.05;107430;1275;22561;-73
2023/01/20 11:32:22;;;;;;;16.00;6.70;;;;;;;9.55;100.00;99344.41;108815;1275;22836;-74
2023/01/20 11:34:51;;;;;;;14.30;7.80;;;;;;;9.65;100.00;99344.57;110323;1275;22865;-74
2023/01/20 11:37:19;;;;;;;18.80;8.10;;;;;;;9.70;100.00;99345.48;110430;1275;22323;-75
2023/01/20 11:39:49;;;;;;;21.40;8.80;;;;;;;9.72;100.00;99346.61;110194;1275;22420;-73
2023/01/20 11:42:24;;;;;;;18.30;7.70;;;;;;;9.71;100.00;99348.90;110188;1276;22289;-74
2023/01/20 11:44:52;;;;;;;17.90;7.40;;;;;;;9.78;100.00;99347.20;110008;1276;22191;-74
2023/01/20 11:47:27;;;;;;;19.00;7.60;;;;;;;9.85;100.00;99357.77;110265;1276;22431;-74
2023/01/20 11:50:03;;;;;;;15.90;7.50;;;;;;;9.94;100.00;99358.14;110160;1276;22402;-74
2023/01/20 11:52:30;;;;;;;16.90;7.60;;;;;;;10.02;100.00;99356.91;110352;1275;22330;-74
2023/01/20 11:55:18;;;;;;;24.60;13.90;;;;;;;10.14;100.00;99362.44;110186;1275;23194;-72
2023/01/20 11:57:51;;;;;;;15.40;6.80;;;;;;;10.32;100.00;99360.52;110395;1275;22361;-74
2023/01/20 12:00:18;;;;;;;12.30;7.10;;;;;;;10.41;100.00;99359.99;110379;1275;23007;-73
2023/01/20 12:03:04;;;;;;;17.40;8.60;;;;;;;10.45;100.00;99361.23;110427;1275;22232;-73
2023/01/20 12:06:09;;;;;;;15.70;7.70;;;;;;;10.45;100.00;99357.91;110444;1275;22265;-74
2023/01/20 12:08:59;;;;;;;15.90;7.20;;;;;;;10.48;100.00;99355.81;110387;1275;22319;-73
2023/01/20 12:11:30;;;;;;;16.40;7.30;;;;;;;10.53;100.00;99356.29;110269;1275;23440;-72
2023/01/20 12:14:19;;;;;;;16.40;6.90;;;;;;;10.56;100.00;99353.62;110159;1275;22244;-73
2023/01/20 12:17:02;;;;;;;15.00;7.30;;;;;;;10.55;100.00;99353.13;110183;1275;22321;-73
2023/01/20 12:19:36;;;;;;;14.60;7.10;;;;;;;10.53;100.00;99357.28;110228;1275;22907;-73
2023/01/20 12:22:08;;;;;;;14.30;7.10;;;;;;;10.59;100.00;99353.98;110193;1275;22428;-74
2023/01/20 12:25:20;;;;;;;16.90;7.00;;;;;;;10.65;100.00;99357.20;110140;1274;22275;-73
2023/01/20 12:27:56;;;;;;;14.80;6.50;;;;;;;10.67;100.00;99360.72;110172;1275;22431;-73
2023/01/20 12:30:38;;;;;;;14.60;6.50;;;;;;;10.67;100.00;99363.41;110343;1275;23057;-73
2023/01/20 12:33:19;;;;;;;16.50;6.90;;;;;;;10.76;100.00;99361.54;110352;1275;22196;-73
2023/01/20 12:36:18;;;;;;;15.90;6.60;;;;;;;10.86;100.00;99364.48;110386;1275;22401;-74
2023/01/20 12:39:10;;;;;;;16.90;6.50;;;;;;;10.86;100.00;99359.52;110203;1275;22194;-74
2023/01/20 12:41:56;;;;;;;16.50;7.80;;;;;;;10.86;100.00;99363.11;110320;1275;22272;-73
2023/01/20 12:44:35;;;;;;;14.20;7.10;;;;;;;10.94;100.00;99361.92;109795;1275;22574;-73
2023/01/20 12:47:41;;;;;;;18.50;8.90;;;;;;;11.02;100.00;99365.90;107791;1275;25250;-74
2023/01/20 12:50:27;;;;;;;83.20;57.00;;;;;;;11.02;100.00;99368.01;107643;1275;22530;-74
2023/01/20 12:53:17;;;;;;;28.80;15.50;;;;;;;10.99;100.00;99368.42;107461;1275;22821;-73
2023/01/20 12:56:09;;;;;;;38.90;25.50;;;;;;;11.02;100.00;99363.94;107971;1275;22683;-74
2023/01/20 12:58:38;;;;;;;53.50;30.50;;;;;;;11.05;100.00;99362.82;107497;1275;22534;-74
2023/01/20 13:01:09;;;;;;;74.50;51.10;;;;;;;11.02;100.00;99364.80;107685;1275;25354;-73
2023/01/20 13:03:55;;;;;;;52.60;34.40;;;;;;;10.98;100.00;99363.31;107526;1275;22550;-74
2023/01/20 13:06:44;;;;;;;67.70;45.00;;;;;;;11.02;100.00;99362.14;108313;1275;22556;-74
2023/01/20 13:09:47;;;;;;;25.00;14.00;;;;;;;11.07;100.00;99370.27;107605;1275;22517;-74
2023/01/20 13:12:21;;;;;;;19.60;11.00;;;;;;;11.06;100.00;99368.05;107455;1275;22955;-74
2023/01/20 13:14:52;;;;;;;59.40;38.60;;;;;;;11.00;100.00;99368.63;107859;1275;25267;-73
2023/01/20 13:17:24;;;;;;;35.00;21.20;;;;;;;11.00;100.00;99366.30;110274;1275;23377;-75
2023/01/20 13:19:53;;;;;;;21.70;11.10;;;;;;;11.07;100.00;99366.66;110313;1275;23008;-75
2023/01/20 13:22:22;;;;;;;18.90;9.70;;;;;;;11.11;100.00;99367.83;110397;1275;22878;-73
2023/01/20 13:24:53;;;;;;;18.20;8.70;;;;;;;11.12;100.00;99368.48;107610;1275;23614;-73
2023/01/20 13:27:29;;;;;;;16.90;8.30;;;;;;;11.17;100.00;99366.81;107390;1275;23027;-72
2023/01/20 13:29:57;;;;;;;15.50;8.30;;;;;;;11.21;100.00;99367.00;107299;1275;22530;-73
2023/01/20 13:32:25;;;;;;;18.50;9.30;;;;;;;11.20;100.00;99368.73;107294;1275;22756;-73
2023/01/20 13:34:52;;;;;;;18.70;8.80;;;;;;;11.16;100.00;99364.91;107642;1275;22562;-75
2023/01/20 13:37:25;;;;;;;18.10;8.80;;;;;;;11.21;100.00;99368.48;107614;1253;22569;-73
2023/01/20 13:39:53;;;;;;;19.20;9.40;;;;;;;11.23;100.00;99372.82;107470;1274;24212;-72
2023/01/20 13:42:26;;;;;;;17.30;8.40;;;;;;;11.21;100.00;99370.60;107332;1269;22625;-73
2023/01/20 13:45:13;;;;;;;18.20;8.00;;;;;;;11.18;100.00;99366.59;107518;1272;22552;-74
2023/01/20 13:47:59;;;;;;;15.60;7.60;;;;;;;11.20;100.00;99367.55;107468;1275;22644;-75
2023/01/20 13:50:37;;;;;;;13.90;7.30;;;;;;;11.19;100.00;99365.16;107634;1275;22542;-76
2023/01/20 13:53:10;;;;;;;14.20;7.50;;;;;;;11.17;100.00;99365.78;107764;1275;22554;-74
2023/01/20 13:55:43;;;;;;;12.40;6.80;;;;;;;11.12;100.00;99364.51;107635;1274;23124;-73
2023/01/20 13:58:18;;;;;;;11.70;6.00;;;;;;;11.13;100.00;99365.10;107628;1275;22557;-72
2023/01/20 14:00:48;;;;;;;12.50;6.70;;;;;;;11.15;100.00;99360.46;107430;1275;24450;-73
2023/01/20 14:03:29;;;;;;;13.60;7.00;;;;;;;11.13;100.00;99360.08;110364;1275;22397;-75
2023/01/20 14:05:58;;;;;;;13.90;6.50;;;;;;;11.09;100.00;99352.77;110120;1275;22203;-75
2023/01/20 14:08:30;;;;;;;11.20;6.00;;;;;;;11.04;100.00;99360.92;110311;1275;22330;-75
2023/01/20 14:11:22;;;;;;;13.20;6.50;;;;;;;11.05;100.00;99358.57;110298;1275;22262;-74
2023/01/20 14:13:53;;;;;;;14.40;7.00;;;;;;;11.06;100.00;99355.84;110200;1276;22823;-72
2023/01/20 14:16:23;;;;;;;14.80;9.50;;;;;;;11.01;100.00;99354.02;110124;1276;22240;-72
2023/01/20 14:18:55;;;;;;;22.60;13.90;;;;;;;10.95;100.00;99357.42;110300;1275;23564;-73
2023/01/20 14:21:24;;;;;;;19.20;12.30;;;;;;;10.91;100.00;99353.61;110280;1275;22225;-73
2023/01/20 14:23:51;;;;;;;17.80;10.50;;;;;;;10.91;100.00;99355.41;110144;1275;22431;-72
2023/01/20 14:26:28;;;;;;;22.20;12.40;;;;;;;10.91;100.00;99352.78;110238;1275;22419;-74
2023/01/20 14:29:03;;;;;;;21.20;12.60;;;;;;;10.83;100.00;99351.05;110270;1275;22664;-74
2023/01/20 14:31:36;;;;;;;17.90;10.90;;;;;;;10.73;100.00;99350.52;110269;1275;22193;-73
2023/01/20 14:34:25;;;;;;;16.20;10.00;;;;;;;10.72;100.00;99348.45;107908;1268;23318;-74